sensor_id;sensor_type;location;lat;lon;timestamp;pressure;altitude;pressure_sealevel;temperature;humidity
79584;BME280;69053;57.338;18.700;2023-08-30T03:43:33;100538.25;;;13.35;98.99
79584;BME280;69053;57.338;18.700;2023-08-30T04:13:41;100506.25;;;13.35;99.21
79584;BME280;69053;57.338;18.700;2023-08-30T04:20:43;100495.31;;;13.35;99.14
79584;BME280;69053;57.338;18.700;2023-08-30T04:34:00;100474.75;;;13.32;99.29
79584;BME280;69053;57.338;18.700;2023-08-30T04:37:01;100462.97;;;13.32;99.35
79584;BME280;69053;57.338;18.700;2023-08-30T04:47:34;100443.09;;;13.37;99.50
79584;BME280;69053;57.338;18.700;2023-08-30T05:20:49;100427.00;;;13.52;99.68
79584;BME280;69053;57.338;18.700;2023-08-30T05:23:53;100431.41;;;13.53;99.39
79584;BME280;69053;57.338;18.700;2023-08-30T05:36:23;100437.34;;;13.62;99.31
79584;BME280;69053;57.338;18.700;2023-08-30T05:39:40;100435.19;;;13.64;99.81
79584;BME280;69053;57.338;18.700;2023-08-30T05:42:43;100431.63;;;13.63;98.92
79584;BME280;69053;57.338;18.700;2023-08-30T05:46:00;100431.34;;;13.65;99.13
79584;BME280;69053;57.338;18.700;2023-08-30T05:49:04;100433.03;;;13.66;99.22
79584;BME280;69053;57.338;18.700;2023-08-30T05:52:09;100426.50;;;13.67;99.57
79584;BME280;69053;57.338;18.700;2023-08-30T05:55:10;100418.28;;;13.67;99.27
79584;BME280;69053;57.338;18.700;2023-08-30T05:58:12;100413.38;;;13.69;99.24
79584;BME280;69053;57.338;18.700;2023-08-30T06:13:54;100391.91;;;13.78;98.99
79584;BME280;69053;57.338;18.700;2023-08-30T07:23:18;100416.16;;;14.66;97.45
79584;BME280;69053;57.338;18.700;2023-08-30T07:26:20;100421.16;;;14.69;97.38
79584;BME280;69053;57.338;18.700;2023-08-30T07:32:46;100419.66;;;14.78;97.13
79584;BME280;69053;57.338;18.700;2023-08-30T07:35:58;100405.19;;;14.82;97.05
79584;BME280;69053;57.338;18.700;2023-08-30T07:42:18;100422.28;;;14.90;96.72
79584;BME280;69053;57.338;18.700;2023-08-30T07:45:18;100420.97;;;14.92;96.66
79584;BME280;69053;57.338;18.700;2023-08-30T07:48:25;100429.00;;;14.99;96.46
79584;BME280;69053;57.338;18.700;2023-08-30T07:51:26;100431.06;;;15.09;96.15
79584;BME280;69053;57.338;18.700;2023-08-30T07:54:27;100429.56;;;15.18;96.32
79584;BME280;69053;57.338;18.700;2023-08-30T07:57:28;100434.50;;;15.21;95.84
79584;BME280;69053;57.338;18.700;2023-08-30T08:00:29;100433.50;;;15.27;95.67
79584;BME280;69053;57.338;18.700;2023-08-30T08:03:40;100436.88;;;15.34;95.16
79584;BME280;69053;57.338;18.700;2023-08-30T08:06:43;100432.50;;;15.33;94.72
79584;BME280;69053;57.338;18.700;2023-08-30T08:09:44;100434.78;;;15.42;94.70
79584;BME280;69053;57.338;18.700;2023-08-30T08:12:45;100433.19;;;15.46;94.43
79584;BME280;69053;57.338;18.700;2023-08-30T08:15:45;100437.03;;;15.45;94.30
79584;BME280;69053;57.338;18.700;2023-08-30T08:18:46;100435.41;;;15.49;94.07
79584;BME280;69053;57.338;18.700;2023-08-30T08:21:47;100427.53;;;15.52;93.71
79584;BME280;69053;57.338;18.700;2023-08-30T08:24:48;100437.19;;;15.60;93.91
79584;BME280;69053;57.338;18.700;2023-08-30T08:27:48;100445.00;;;15.68;93.93
79584;BME280;69053;57.338;18.700;2023-08-30T08:30:49;100441.84;;;15.77;93.54
79584;BME280;69053;57.338;18.700;2023-08-30T08:34:11;100439.72;;;15.84;93.53
79584;BME280;69053;57.338;18.700;2023-08-30T08:37:12;100449.66;;;15.90;93.33
79584;BME280;69053;57.338;18.700;2023-08-30T08:40:12;100448.38;;;15.98;93.04
79584;BME280;69053;57.338;18.700;2023-08-30T08:43:13;100445.63;;;15.98;92.88
79584;BME280;69053;57.338;18.700;2023-08-30T08:46:15;100450.75;;;15.89;92.11
79584;BME280;69053;57.338;18.700;2023-08-30T08:49:16;100443.59;;;15.88;92.81
79584;BME280;69053;57.338;18.700;2023-08-30T08:52:17;100443.91;;;15.91;92.95
79584;BME280;69053;57.338;18.700;2023-08-30T08:55:18;100449.19;;;15.98;92.81
79584;BME280;69053;57.338;18.700;2023-08-30T08:58:19;100443.81;;;16.08;92.31
79584;BME280;69053;57.338;18.700;2023-08-30T09:01:19;100458.47;;;16.19;92.04
79584;BME280;69053;57.338;18.700;2023-08-30T09:04:20;100450.53;;;16.23;91.43
79584;BME280;69053;57.338;18.700;2023-08-30T09:07:21;100451.78;;;16.37;90.79
79584;BME280;69053;57.338;18.700;2023-08-30T09:10:25;100450.03;;;16.58;90.92
79584;BME280;69053;57.338;18.700;2023-08-30T09:13:25;100451.28;;;16.83;90.44
79584;BME280;69053;57.338;18.700;2023-08-30T09:16:26;100442.09;;;16.99;90.02
79584;BME280;69053;57.338;18.700;2023-08-30T09:19:29;100437.50;;;17.15;89.28
79584;BME280;69053;57.338;18.700;2023-08-30T09:22:39;100459.28;;;17.22;88.07
79584;BME280;69053;57.338;18.700;2023-08-30T09:25:40;100460.34;;;17.11;86.47
79584;BME280;69053;57.338;18.700;2023-08-30T09:28:42;100451.78;;;17.07;87.58
79584;BME280;69053;57.338;18.700;2023-08-30T09:31:52;100455.66;;;17.11;87.36
79584;BME280;69053;57.338;18.700;2023-08-30T09:34:58;100449.63;;;17.14;87.67
79584;BME280;69053;57.338;18.700;2023-08-30T09:37:59;100465.56;;;17.17;86.76
79584;BME280;69053;57.338;18.700;2023-08-30T09:41:25;100457.94;;;17.24;86.75
79584;BME280;69053;57.338;18.700;2023-08-30T09:44:29;100465.97;;;17.31;86.16
79584;BME280;69053;57.338;18.700;2023-08-30T09:47:35;100465.72;;;17.43;86.15
79584;BME280;69053;57.338;18.700;2023-08-30T09:50:39;100464.13;;;17.52;85.67
79584;BME280;69053;57.338;18.700;2023-08-30T10:00:08;100470.00;;;17.76;84.01
79584;BME280;69053;57.338;18.700;2023-08-30T10:06:38;100470.22;;;17.59;83.29
79584;BME280;69053;57.338;18.700;2023-08-30T10:09:43;100467.75;;;17.68;84.86
79584;BME280;69053;57.338;18.700;2023-08-30T10:34:46;100502.91;;;17.98;83.32
79584;BME280;69053;57.338;18.700;2023-08-30T10:44:22;100493.50;;;17.99;83.02
79584;BME280;69053;57.338;18.700;2023-08-30T10:47:57;100489.72;;;18.21;83.18
79584;BME280;69053;57.338;18.700;2023-08-30T10:50:58;100492.53;;;18.47;82.24
79584;BME280;69053;57.338;18.700;2023-08-30T10:53:58;100494.44;;;18.77;79.27
79584;BME280;69053;57.338;18.700;2023-08-30T11:59:46;100477.94;;;19.83;74.28
79584;BME280;69053;57.338;18.700;2023-08-30T12:52:38;100470.44;;;19.08;75.52
79584;BME280;69053;57.338;18.700;2023-08-30T13:09:21;100474.88;;;18.89;76.58
79584;BME280;69053;57.338;18.700;2023-08-30T13:12:35;100483.44;;;18.87;77.29
79584;BME280;69053;57.338;18.700;2023-08-30T13:15:50;100482.84;;;18.80;77.32
79584;BME280;69053;57.338;18.700;2023-08-30T13:25:59;100487.84;;;18.88;76.85
79584;BME280;69053;57.338;18.700;2023-08-30T13:29:01;100488.41;;;18.90;76.54
79584;BME280;69053;57.338;18.700;2023-08-30T13:32:03;100489.78;;;18.98;76.29
79584;BME280;69053;57.338;18.700;2023-08-30T13:35:18;100487.31;;;18.97;75.81
79584;BME280;69053;57.338;18.700;2023-08-30T13:38:19;100488.94;;;18.87;75.99
79584;BME280;69053;57.338;18.700;2023-08-30T13:41:20;100485.38;;;18.87;76.38
79584;BME280;69053;57.338;18.700;2023-08-30T13:44:24;100485.66;;;18.85;76.34
79584;BME280;69053;57.338;18.700;2023-08-30T13:47:27;100493.34;;;18.78;76.77
79584;BME280;69053;57.338;18.700;2023-08-30T13:50:28;100491.13;;;18.75;76.74
79584;BME280;69053;57.338;18.700;2023-08-30T13:53:37;100497.19;;;18.77;77.01
79584;BME280;69053;57.338;18.700;2023-08-30T13:56:40;100485.91;;;18.73;76.45
79584;BME280;69053;57.338;18.700;2023-08-30T13:59:42;100493.91;;;18.70;76.77
79584;BME280;69053;57.338;18.700;2023-08-30T14:02:45;100494.16;;;18.58;76.57
79584;BME280;69053;57.338;18.700;2023-08-30T14:05:52;100488.09;;;18.46;76.49
79584;BME280;69053;57.338;18.700;2023-08-30T14:09:01;100493.59;;;18.41;76.41
79584;BME280;69053;57.338;18.700;2023-08-30T14:12:05;100497.22;;;18.41;76.30
79584;BME280;69053;57.338;18.700;2023-08-30T14:15:08;100499.41;;;18.44;76.44
79584;BME280;69053;57.338;18.700;2023-08-30T14:18:09;100486.47;;;18.50;76.07
79584;BME280;69053;57.338;18.700;2023-08-30T14:21:13;100499.41;;;18.54;75.73
79584;BME280;69053;57.338;18.700;2023-08-30T14:24:14;100490.31;;;18.59;75.97
79584;BME280;69053;57.338;18.700;2023-08-30T14:27:16;100491.41;;;18.63;75.39
79584;BME280;69053;57.338;18.700;2023-08-30T14:30:29;100492.00;;;18.70;75.44
79584;BME280;69053;57.338;18.700;2023-08-30T14:33:31;100498.88;;;18.78;75.37
79584;BME280;69053;57.338;18.700;2023-08-30T14:36:37;100511.59;;;18.89;74.67
79584;BME280;69053;57.338;18.700;2023-08-30T14:39:44;100514.63;;;18.98;74.53
79584;BME280;69053;57.338;18.700;2023-08-30T14:42:57;100504.69;;;18.92;74.54
79584;BME280;69053;57.338;18.700;2023-08-30T14:46:04;100515.72;;;18.87;74.71
79584;BME280;69053;57.338;18.700;2023-08-30T14:49:09;100504.41;;;18.83;75.24
79584;BME280;69053;57.338;18.700;2023-08-30T14:52:18;100496.94;;;18.79;75.67
79584;BME280;69053;57.338;18.700;2023-08-30T14:55:23;100496.09;;;18.68;75.13
79584;BME280;69053;57.338;18.700;2023-08-30T14:58:31;100496.66;;;18.60;75.70
79584;BME280;69053;57.338;18.700;2023-08-30T15:01:43;100486.47;;;18.50;76.08
79584;BME280;69053;57.338;18.700;2023-08-30T15:04:52;100491.13;;;18.39;76.33
79584;BME280;69053;57.338;18.700;2023-08-30T15:07:57;100490.53;;;18.22;76.38
79584;BME280;69053;57.338;18.700;2023-08-30T15:14:46;100486.38;;;18.04;77.25
79584;BME280;69053;57.338;18.700;2023-08-30T15:18:15;100491.31;;;17.96;77.86
79584;BME280;69053;57.338;18.700;2023-08-30T15:22:03;100490.47;;;17.91;78.39
79584;BME280;69053;57.338;18.700;2023-08-30T15:25:46;100486.34;;;17.88;78.62
79584;BME280;69053;57.338;18.700;2023-08-30T15:32:58;100498.75;;;17.96;78.58
79584;BME280;69053;57.338;18.700;2023-08-30T15:39:50;100485.25;;;18.05;78.50
79584;BME280;69053;57.338;18.700;2023-08-30T15:43:03;100482.53;;;18.10;78.44
79584;BME280;69053;57.338;18.700;2023-08-30T15:46:11;100486.41;;;18.09;78.66
79584;BME280;69053;57.338;18.700;2023-08-30T15:49:25;100494.09;;;18.07;78.87
79584;BME280;69053;57.338;18.700;2023-08-30T15:52:26;100476.44;;;18.03;79.06
79584;BME280;69053;57.338;18.700;2023-08-30T15:55:27;100491.31;;;18.02;79.20
79584;BME280;69053;57.338;18.700;2023-08-30T15:58:31;100508.38;;;17.88;79.23
79584;BME280;69053;57.338;18.700;2023-08-30T16:01:39;100511.63;;;17.80;80.06
79584;BME280;69053;57.338;18.700;2023-08-30T16:04:49;100509.91;;;17.69;80.54
79584;BME280;69053;57.338;18.700;2023-08-30T16:07:59;100501.88;;;17.62;80.62
79584;BME280;69053;57.338;18.700;2023-08-30T16:11:19;100501.56;;;17.53;80.77
79584;BME280;69053;57.338;18.700;2023-08-30T16:14:23;100506.78;;;17.50;81.42
79584;BME280;69053;57.338;18.700;2023-08-30T16:17:26;100505.41;;;17.47;81.35
79584;BME280;69053;57.338;18.700;2023-08-30T16:20:32;100516.41;;;17.42;81.47
79584;BME280;69053;57.338;18.700;2023-08-30T16:23:37;100501.78;;;17.36;81.96
79584;BME280;69053;57.338;18.700;2023-08-30T16:26:43;100501.75;;;17.31;82.34
79584;BME280;69053;57.338;18.700;2023-08-30T16:29:46;100490.38;;;17.22;82.35
79584;BME280;69053;57.338;18.700;2023-08-30T16:36:04;100495.84;;;17.17;82.29
79584;BME280;69053;57.338;18.700;2023-08-30T16:39:12;100492.28;;;17.17;82.05
79584;BME280;69053;57.338;18.700;2023-08-30T16:42:33;100470.78;;;17.14;81.95
79584;BME280;69053;57.338;18.700;2023-08-30T16:45:52;100484.00;;;17.12;81.38
79584;BME280;69053;57.338;18.700;2023-08-30T16:48:53;100485.06;;;17.05;82.02
79584;BME280;69053;57.338;18.700;2023-08-30T16:51:58;100489.44;;;17.01;81.87
79584;BME280;69053;57.338;18.700;2023-08-30T16:55:25;100480.56;;;16.94;81.84
79584;BME280;69053;57.338;18.700;2023-08-30T16:58:52;100484.69;;;16.92;82.24
79584;BME280;69053;57.338;18.700;2023-08-30T17:02:02;100490.16;;;16.86;82.38
79584;BME280;69053;57.338;18.700;2023-08-30T17:28:57;100484.91;;;16.53;82.98
79584;BME280;69053;57.338;18.700;2023-08-30T17:32:00;100490.09;;;16.49;82.96
79584;BME280;69053;57.338;18.700;2023-08-30T17:35:18;100498.84;;;16.46;83.19
79584;BME280;69053;57.338;18.700;2023-08-30T17:38:49;100499.63;;;16.41;83.11
79584;BME280;69053;57.338;18.700;2023-08-30T17:41:52;100501.75;;;16.34;82.90
79584;BME280;69053;57.338;18.700;2023-08-30T17:45:01;100510.28;;;16.33;82.90
79584;BME280;69053;57.338;18.700;2023-08-30T17:48:05;100517.06;;;16.25;83.06
79584;BME280;69053;57.338;18.700;2023-08-30T17:51:06;100523.09;;;16.22;83.66
79584;BME280;69053;57.338;18.700;2023-08-30T17:54:13;100520.59;;;16.20;83.38
79584;BME280;69053;57.338;18.700;2023-08-30T17:57:17;100519.78;;;16.20;83.41
79584;BME280;69053;57.338;18.700;2023-08-30T18:00:24;100523.84;;;16.17;83.63
79584;BME280;69053;57.338;18.700;2023-08-30T18:04:17;100528.72;;;16.10;84.02
79584;BME280;69053;57.338;18.700;2023-08-30T18:07:24;100522.91;;;16.06;84.15
79584;BME280;69053;57.338;18.700;2023-08-30T18:10:52;100522.59;;;16.03;84.33
79584;BME280;69053;57.338;18.700;2023-08-30T18:13:58;100531.59;;;15.98;84.49
79584;BME280;69053;57.338;18.700;2023-08-30T18:17:00;100527.47;;;15.96;84.60
79584;BME280;69053;57.338;18.700;2023-08-30T18:20:15;100530.47;;;15.94;85.00
79584;BME280;69053;57.338;18.700;2023-08-30T18:23:24;100532.09;;;15.95;84.64
79584;BME280;69053;57.338;18.700;2023-08-30T18:26:26;100542.03;;;15.96;85.33
79584;BME280;69053;57.338;18.700;2023-08-30T18:29:43;100535.97;;;15.94;85.38
79584;BME280;69053;57.338;18.700;2023-08-30T18:36:26;100535.09;;;15.93;85.09
79584;BME280;69053;57.338;18.700;2023-08-30T18:39:33;100536.16;;;15.87;85.56
79584;BME280;69053;57.338;18.700;2023-08-30T18:42:36;100544.13;;;15.89;85.70
79584;BME280;69053;57.338;18.700;2023-08-30T18:46:08;100544.91;;;15.84;85.49
79584;BME280;69053;57.338;18.700;2023-08-30T18:49:34;100533.09;;;15.84;85.67
79584;BME280;69053;57.338;18.700;2023-08-30T18:52:44;100533.59;;;15.81;85.84
79584;BME280;69053;57.338;18.700;2023-08-30T18:55:49;100524.22;;;15.77;85.90
79584;BME280;69053;57.338;18.700;2023-08-30T18:58:58;100523.88;;;15.73;86.41
79584;BME280;69053;57.338;18.700;2023-08-30T19:02:05;100525.19;;;15.70;86.45
79584;BME280;69053;57.338;18.700;2023-08-30T19:08:46;100528.75;;;15.71;86.71
79584;BME280;69053;57.338;18.700;2023-08-30T19:47:36;100510.91;;;15.29;87.83
79584;BME280;69053;57.338;18.700;2023-08-30T19:50:56;100507.03;;;15.25;88.25
79584;BME280;69053;57.338;18.700;2023-08-30T20:38:39;100490.69;;;14.79;89.71
79584;BME280;69053;57.338;18.700;2023-08-30T20:52:45;100472.34;;;14.63;90.01
79584;BME280;69053;57.338;18.700;2023-08-30T22:39:05;100472.50;;;12.70;94.70
79584;BME280;69053;57.338;18.700;2023-08-30T22:42:26;100477.97;;;12.70;94.07
79584;BME280;69053;57.338;18.700;2023-08-30T22:49:35;100483.03;;;12.67;94.91
79584;BME280;69053;57.338;18.700;2023-08-30T22:52:42;100488.28;;;12.68;94.84
79584;BME280;69053;57.338;18.700;2023-08-30T22:55:45;100488.50;;;12.67;94.34
79584;BME280;69053;57.338;18.700;2023-08-30T22:58:53;100488.75;;;12.65;94.83
79584;BME280;69053;57.338;18.700;2023-08-30T23:02:04;100489.59;;;12.66;94.68
79584;BME280;69053;57.338;18.700;2023-08-30T23:05:48;100489.00;;;12.64;95.02
79584;BME280;69053;57.338;18.700;2023-08-30T23:09:02;100484.22;;;12.59;94.97
79584;BME280;69053;57.338;18.700;2023-08-30T23:12:15;100478.16;;;12.57;95.14
79584;BME280;69053;57.338;18.700;2023-08-30T23:16:14;100482.19;;;12.54;94.23
79584;BME280;69053;57.338;18.700;2023-08-30T23:29:26;100483.16;;;12.48;95.40
79584;BME280;69053;57.338;18.700;2023-08-30T23:33:09;100476.25;;;12.46;95.14
79584;BME280;69053;57.338;18.700;2023-08-30T23:36:31;100469.94;;;12.45;95.35
79584;BME280;69053;57.338;18.700;2023-08-30T23:39:44;100478.97;;;12.46;95.58
79584;BME280;69053;57.338;18.700;2023-08-30T23:43:00;100469.13;;;12.45;95.91
79584;BME280;69053;57.338;18.700;2023-08-30T23:46:07;100474.94;;;12.48;96.17
79584;BME280;69053;57.338;18.700;2023-08-30T23:49:33;100458.47;;;12.55;95.93
79584;BME280;69053;57.338;18.700;2023-08-30T23:53:08;100462.72;;;12.63;96.33
79584;BME280;69053;57.338;18.700;2023-08-30T23:56:52;100463.22;;;12.71;96.46
79584;BME280;69053;57.338;18.700;2023-08-30T23:59:55;100459.91;;;12.81;95.65
